createdAt,value
2019-02-21T00:03:47.570Z,14.63
2019-02-21T00:06:35.909Z,16.30
2019-02-21T00:09:24.170Z,13.83
2019-02-21T00:12:12.228Z,13.63
2019-02-21T00:15:00.303Z,13.03
2019-02-21T00:17:48.384Z,14.07
2019-02-21T00:20:36.490Z,11.37
2019-02-21T00:23:24.505Z,12.67
2019-02-21T00:26:12.545Z,18.03
2019-02-21T00:29:00.567Z,16.07
2019-02-21T00:31:48.615Z,15.00
2019-02-21T00:34:36.720Z,15.63
2019-02-21T00:37:24.765Z,17.13
2019-02-21T00:40:12.905Z,11.27
2019-02-21T00:43:00.909Z,12.50
2019-02-21T00:45:48.953Z,15.07
2019-02-21T00:48:37.205Z,12.00
2019-02-21T00:51:25.474Z,10.37
2019-02-21T00:54:13.572Z,13.00
2019-02-21T00:56:54.298Z,12.47
2019-02-21T00:59:35.026Z,12.53
2019-02-21T01:02:15.967Z,13.03
2019-02-21T01:04:57.110Z,15.43
2019-02-21T01:07:37.906Z,16.47
2019-02-21T01:10:18.720Z,12.87
2019-02-21T01:12:59.530Z,12.53
2019-02-21T01:15:40.311Z,12.43
2019-02-21T01:18:21.354Z,14.33
2019-02-21T01:21:02.107Z,14.27
2019-02-21T01:23:46.043Z,14.27
2019-02-21T01:26:27.289Z,12.63
2019-02-21T01:29:08.397Z,12.80
2019-02-21T01:31:49.036Z,13.97
2019-02-21T01:37:11.817Z,14.17
2019-02-21T01:39:52.407Z,12.47
2019-02-21T01:42:33.246Z,15.43
2019-02-21T01:45:13.965Z,12.77
2019-02-21T01:47:56.969Z,11.87
2019-02-21T01:53:23.930Z,10.97
2019-02-21T01:56:04.609Z,12.93
2019-02-21T02:01:31.478Z,13.37
2019-02-21T02:04:11.953Z,12.87
2019-02-21T02:06:52.814Z,13.23
2019-02-21T02:12:22.260Z,14.43
2019-02-21T02:15:03.022Z,14.43
2019-02-21T02:17:44.637Z,14.17
2019-02-21T02:20:26.122Z,14.67
2019-02-21T02:23:06.675Z,12.73
2019-02-21T02:25:47.023Z,13.17
2019-02-21T02:31:22.750Z,11.13
2019-02-21T02:37:01.785Z,13.43
2019-02-21T02:39:42.640Z,13.10
2019-02-21T02:42:23.295Z,11.20
2019-02-21T02:45:04.036Z,15.40
2019-02-21T02:47:44.639Z,12.57
2019-02-21T02:50:25.694Z,13.40
2019-02-21T02:53:06.505Z,16.53
2019-02-21T02:55:47.286Z,12.10
2019-02-21T03:01:18.112Z,12.53
2019-02-21T03:03:48.289Z,10.77
2019-02-21T03:06:37.436Z,12.30
2019-02-21T03:09:25.486Z,18.70
2019-02-21T03:12:13.773Z,16.00
2019-02-21T03:15:02.154Z,15.97
2019-02-21T03:17:31.077Z,13.43
2019-02-21T03:20:19.514Z,14.83
2019-02-21T03:23:07.806Z,15.93
2019-02-21T03:25:55.850Z,14.47
2019-02-21T03:28:44.021Z,17.70
2019-02-21T03:31:32.365Z,14.73
2019-02-21T03:34:20.699Z,17.33
2019-02-21T03:37:08.750Z,15.80
2019-02-21T03:39:57.130Z,13.67
2019-02-21T03:42:45.196Z,17.87
2019-02-21T03:45:33.331Z,16.27
2019-02-21T03:48:21.390Z,19.10
2019-02-21T03:51:09.438Z,15.90
2019-02-21T03:53:57.566Z,17.60
2019-02-21T03:56:38.693Z,17.77
2019-02-21T03:59:19.346Z,17.73
2019-02-21T04:02:05.210Z,17.93
2019-02-21T04:04:43.138Z,17.47
2019-02-21T04:10:05.921Z,19.83
2019-02-21T04:12:46.771Z,20.53
2019-02-21T04:15:27.350Z,19.87
2019-02-21T04:18:07.913Z,26.90
2019-02-21T04:20:48.545Z,20.00
2019-02-21T04:23:29.378Z,26.00
2019-02-21T04:26:10.126Z,23.10
2019-02-21T04:28:50.905Z,22.67
2019-02-21T04:31:32.037Z,20.70
2019-02-21T04:34:12.669Z,16.30
2019-02-21T04:36:53.765Z,19.00
2019-02-21T04:39:34.465Z,18.17
2019-02-21T04:42:15.338Z,23.40
2019-02-21T04:44:55.884Z,22.30
2019-02-21T04:50:20.597Z,18.30
2019-02-21T04:52:50.183Z,19.80
2019-02-21T04:55:31.178Z,19.27
2019-02-21T05:01:01.383Z,19.90
2019-02-21T05:03:42.005Z,21.17
2019-02-21T05:06:22.986Z,23.47
2019-02-21T05:09:07.537Z,18.37
2019-02-21T05:11:48.704Z,25.17
2019-02-21T05:14:29.263Z,18.63
2019-02-21T05:19:55.869Z,18.00
2019-02-21T05:22:26.302Z,18.47
2019-02-21T05:25:14.413Z,18.53
2019-02-21T05:28:21.511Z,21.70
2019-02-21T05:31:28.923Z,22.33
2019-02-21T05:34:36.035Z,18.93
2019-02-21T05:37:43.131Z,21.00
2019-02-21T05:44:09.404Z,25.17
2019-02-21T05:47:16.485Z,27.53
2019-02-21T05:50:23.671Z,26.37
2019-02-21T05:53:31.083Z,35.93
2019-02-21T05:56:31.288Z,38.30
2019-02-21T05:59:18.863Z,36.90
2019-02-21T06:02:10.431Z,33.60
2019-02-21T06:05:08.736Z,27.97
2019-02-21T06:07:55.639Z,27.23
2019-02-21T06:10:55.950Z,23.67
2019-02-21T06:13:58.369Z,23.73
2019-02-21T06:16:58.251Z,22.67
2019-02-21T06:19:58.383Z,25.90
2019-02-21T06:25:51.470Z,26.93
2019-02-21T06:28:45.751Z,22.63
2019-02-21T06:31:26.265Z,22.93
2019-02-21T06:36:49.428Z,29.10
2019-02-21T06:39:29.772Z,27.50
2019-02-21T06:42:10.902Z,25.53
2019-02-21T06:47:38.279Z,34.57
2019-02-21T06:50:26.391Z,38.47
2019-02-21T06:53:01.543Z,26.80
2019-02-21T06:55:42.194Z,29.80
2019-02-21T06:58:22.897Z,27.30
2019-02-21T07:01:03.497Z,31.63
2019-02-21T07:03:44.007Z,28.50
2019-02-21T07:06:31.874Z,28.70
2019-02-21T07:09:07.906Z,27.40
2019-02-21T07:11:51.209Z,25.57
2019-02-21T07:14:34.425Z,28.03
2019-02-21T07:17:14.965Z,24.60
2019-02-21T07:19:55.826Z,24.77
2019-02-21T07:22:36.515Z,22.97
2019-02-21T07:28:19.210Z,27.30
2019-02-21T07:30:59.774Z,24.80
2019-02-21T07:33:40.208Z,26.53
2019-02-21T07:36:20.688Z,23.37
2019-02-21T07:39:13.693Z,23.13
2019-02-21T07:41:43.936Z,24.43
2019-02-21T07:44:24.458Z,24.93
2019-02-21T07:47:05.796Z,26.37
2019-02-21T07:49:46.186Z,23.53
2019-02-21T07:52:27.608Z,24.03
2019-02-21T07:58:21.227Z,21.33
2019-02-21T08:01:01.570Z,19.67
2019-02-21T08:03:45.911Z,21.73
2019-02-21T08:06:24.792Z,22.23
2019-02-21T08:09:05.902Z,20.10
2019-02-21T08:11:46.290Z,21.10
2019-02-21T08:14:26.942Z,21.67
2019-02-21T08:17:07.411Z,25.70
2019-02-21T08:19:48.697Z,22.80
2019-02-21T08:22:29.596Z,31.37
2019-02-21T08:25:10.349Z,24.13
2019-02-21T08:27:50.807Z,30.03
2019-02-21T08:30:32.961Z,26.33
2019-02-21T08:33:36.410Z,27.23
2019-02-21T08:36:16.951Z,29.50
2019-02-21T08:38:57.655Z,33.17
2019-02-21T08:41:38.411Z,27.53
2019-02-21T08:44:18.966Z,25.93
2019-02-21T08:47:00.263Z,27.40
2019-02-21T08:49:40.598Z,26.50
2019-02-21T08:52:21.803Z,24.30
2019-02-21T08:55:02.536Z,28.07
2019-02-21T08:57:43.021Z,23.47
2019-02-21T09:00:23.947Z,30.97
2019-02-21T09:03:04.649Z,29.17
2019-02-21T09:05:45.314Z,29.27
2019-02-21T09:08:33.528Z,26.73
2019-02-21T09:10:56.481Z,28.50
2019-02-21T09:13:44.595Z,29.23
2019-02-21T09:16:32.716Z,27.23
2019-02-21T09:19:20.846Z,27.50
2019-02-21T09:22:08.898Z,28.33
2019-02-21T09:24:57.197Z,29.73
2019-02-21T09:27:45.238Z,30.87
2019-02-21T09:30:33.369Z,30.60
2019-02-21T09:33:21.950Z,33.33
2019-02-21T09:36:10.077Z,33.80
2019-02-21T09:38:58.365Z,33.40
2019-02-21T09:41:46.736Z,31.67
2019-02-21T09:44:35.915Z,28.43
2019-02-21T09:47:24.649Z,33.57
2019-02-21T09:50:12.803Z,32.50
2019-02-21T09:53:00.919Z,36.83
2019-02-21T09:55:40.089Z,34.37
2019-02-21T09:58:28.213Z,30.63
2019-02-21T10:01:16.338Z,32.73
2019-02-21T10:04:04.693Z,31.67
2019-02-21T10:06:52.981Z,34.37
2019-02-21T10:09:41.071Z,32.27
2019-02-21T10:12:29.123Z,31.00
2019-02-21T10:15:17.257Z,28.07
2019-02-21T10:18:06.017Z,32.43
2019-02-21T10:20:54.150Z,33.93
2019-02-21T10:23:42.300Z,31.97
2019-02-21T10:26:30.603Z,29.63
2019-02-21T10:29:18.885Z,35.93
2019-02-21T10:32:06.939Z,32.27
2019-02-21T10:34:54.978Z,35.67
2019-02-21T10:37:43.262Z,33.13
2019-02-21T10:40:33.320Z,30.73
2019-02-21T10:43:21.153Z,35.27
2019-02-21T10:46:09.212Z,29.33
2019-02-21T10:48:57.250Z,30.67
2019-02-21T10:51:45.317Z,32.23
2019-02-21T10:54:33.357Z,35.30
2019-02-21T10:57:14.190Z,30.13
2019-02-21T10:59:55.061Z,27.20
2019-02-21T11:02:35.930Z,29.30
2019-02-21T11:05:16.794Z,32.50
2019-02-21T11:07:57.431Z,25.93
2019-02-21T11:10:38.126Z,26.73
2019-02-21T11:13:18.799Z,27.15
2019-02-21T11:16:00.021Z,27.65
2019-02-21T11:18:40.850Z,29.70
2019-02-21T11:21:21.974Z,29.32
2019-02-21T11:24:02.559Z,31.90
2019-02-21T11:26:43.361Z,25.17
2019-02-21T11:29:24.184Z,25.35
2019-02-21T11:32:04.974Z,26.30
2019-02-21T11:34:46.154Z,30.55
2019-02-21T11:37:26.778Z,25.50
2019-02-21T11:40:07.429Z,24.23
2019-02-21T11:42:48.211Z,26.00
2019-02-21T11:45:29.000Z,28.80
2019-02-21T11:48:09.748Z,23.55
2019-02-21T11:50:50.846Z,26.23
2019-02-21T11:53:31.639Z,21.23
2019-02-21T11:56:12.749Z,22.02
2019-02-21T11:58:53.369Z,28.77
2019-02-21T12:01:34.122Z,30.02
2019-02-21T12:04:15.010Z,20.45
2019-02-21T12:06:55.818Z,27.95
2019-02-21T12:09:36.665Z,25.55
2019-02-21T12:12:17.270Z,29.07
2019-02-21T12:17:43.914Z,26.77
2019-02-21T12:20:24.518Z,26.23
2019-02-21T12:23:05.411Z,23.25
2019-02-21T12:25:45.894Z,25.43
2019-02-21T12:28:26.706Z,24.47
2019-02-21T12:31:07.206Z,27.73
2019-02-21T12:33:48.106Z,24.67
2019-02-21T12:36:28.843Z,28.35
2019-02-21T12:39:09.958Z,23.98
2019-02-21T12:41:55.776Z,29.18
2019-02-21T12:44:36.774Z,24.07
2019-02-21T12:47:17.478Z,22.25
2019-02-21T12:49:58.706Z,21.27
2019-02-21T12:52:39.435Z,19.15
2019-02-21T12:55:27.988Z,20.72
2019-02-21T12:58:02.773Z,20.85
2019-02-21T13:00:43.649Z,21.62
2019-02-21T13:03:24.365Z,21.17
2019-02-21T13:05:53.537Z,21.10
2019-02-21T13:08:41.842Z,25.92
2019-02-21T13:11:29.897Z,22.67
2019-02-21T13:14:18.805Z,19.12
2019-02-21T13:17:07.254Z,19.10
2019-02-21T13:19:55.546Z,26.35
2019-02-21T13:22:43.926Z,23.60
2019-02-21T13:25:32.289Z,17.37
2019-02-21T13:28:20.345Z,17.77
2019-02-21T13:31:08.470Z,19.42
2019-02-21T13:33:56.809Z,20.48
2019-02-21T13:36:45.348Z,20.68
2019-02-21T13:39:33.598Z,21.73
2019-02-21T13:42:21.658Z,24.60
2019-02-21T13:45:10.108Z,21.73
2019-02-21T13:47:58.166Z,24.12
2019-02-21T13:50:46.286Z,21.55
2019-02-21T13:53:34.355Z,23.63
2019-02-21T13:56:15.868Z,28.87
2019-02-21T13:58:57.415Z,19.57
2019-02-21T14:01:38.670Z,19.37
2019-02-21T14:04:19.926Z,21.83
2019-02-21T14:07:00.882Z,21.27
2019-02-21T14:09:41.546Z,24.23
2019-02-21T14:12:22.442Z,20.57
2019-02-21T14:15:03.138Z,20.17
2019-02-21T14:17:46.423Z,18.03
2019-02-21T14:20:26.302Z,15.87
2019-02-21T14:23:07.105Z,16.87
2019-02-21T14:25:40.777Z,16.47
2019-02-21T14:28:26.031Z,21.80
2019-02-21T14:31:14.382Z,22.50
2019-02-21T14:34:02.446Z,16.93
2019-02-21T14:36:50.489Z,19.83
2019-02-21T14:39:38.552Z,17.40
2019-02-21T14:42:26.687Z,17.20
2019-02-21T14:45:15.712Z,19.70
2019-02-21T14:48:03.831Z,22.00
2019-02-21T14:50:51.910Z,17.43
2019-02-21T14:53:47.402Z,22.87
2019-02-21T14:56:28.478Z,18.87
2019-02-21T14:59:09.012Z,19.13
2019-02-21T15:04:31.717Z,17.63
2019-02-21T15:07:12.443Z,19.73
2019-02-21T15:09:51.823Z,19.97
2019-02-21T15:12:40.071Z,18.93
2019-02-21T15:15:28.200Z,17.63
2019-02-21T15:18:16.318Z,18.83
2019-02-21T15:21:04.396Z,18.73
2019-02-21T15:23:52.509Z,15.43
2019-02-21T15:26:40.569Z,19.77
2019-02-21T15:29:28.654Z,20.83
2019-02-21T15:32:19.871Z,22.60
2019-02-21T15:35:08.062Z,25.77
2019-02-21T15:37:56.153Z,22.03
2019-02-21T15:40:44.322Z,22.17
2019-02-21T15:43:32.450Z,20.73
2019-02-21T15:46:20.585Z,20.43
2019-02-21T15:49:08.626Z,22.73
2019-02-21T15:51:56.682Z,24.37
2019-02-21T15:54:45.015Z,18.77
2019-02-21T15:57:25.742Z,19.90
2019-02-21T16:00:06.470Z,19.43
2019-02-21T16:02:47.536Z,24.13
2019-02-21T16:05:28.255Z,22.57
2019-02-21T16:08:09.152Z,22.97
2019-02-21T16:10:49.642Z,23.90
2019-02-21T16:13:31.416Z,23.30
2019-02-21T16:16:12.563Z,22.00
2019-02-21T16:18:53.355Z,26.67
2019-02-21T16:21:34.435Z,25.17
2019-02-21T16:24:15.673Z,22.83
2019-02-21T16:26:56.110Z,28.43
2019-02-21T16:29:36.946Z,27.97
2019-02-21T16:32:17.941Z,29.17
2019-02-21T16:34:58.786Z,25.57
2019-02-21T16:37:39.406Z,25.97
2019-02-21T16:40:20.012Z,25.60
2019-02-21T16:43:01.018Z,29.57
2019-02-21T16:45:46.340Z,29.47
2019-02-21T16:48:23.082Z,27.20
2019-02-21T16:51:11.130Z,25.53
2019-02-21T16:53:59.255Z,25.67
2019-02-21T16:56:39.694Z,26.10
2019-02-21T16:59:20.470Z,26.37
2019-02-21T17:02:01.398Z,25.50
2019-02-21T17:04:42.057Z,27.97
2019-02-21T17:07:22.890Z,27.47
2019-02-21T17:10:04.082Z,31.97
2019-02-21T17:12:45.475Z,26.60
2019-02-21T17:15:26.617Z,28.93
2019-02-21T17:18:07.469Z,30.30
2019-02-21T17:20:48.675Z,30.67
2019-02-21T17:23:29.394Z,26.33
2019-02-21T17:26:10.103Z,32.77
2019-02-21T17:28:50.845Z,28.60
2019-02-21T17:31:31.638Z,32.27
2019-02-21T17:34:12.297Z,30.10
2019-02-21T17:36:53.280Z,32.17
2019-02-21T17:39:34.058Z,26.73
2019-02-21T17:42:14.779Z,34.57
2019-02-21T17:44:55.607Z,29.80
2019-02-21T17:47:36.219Z,28.77
2019-02-21T17:50:17.209Z,24.47
2019-02-21T17:52:58.019Z,33.70
2019-02-21T17:55:38.578Z,28.57
2019-02-21T17:58:19.252Z,25.77
2019-02-21T18:01:00.315Z,25.00
2019-02-21T18:03:40.965Z,31.97
2019-02-21T18:06:21.694Z,34.43
2019-02-21T18:09:02.338Z,33.10
2019-02-21T18:11:42.930Z,34.80
2019-02-21T18:14:23.832Z,35.37
2019-02-21T18:17:05.094Z,36.87
2019-02-21T18:19:45.558Z,33.07
2019-02-21T18:22:26.763Z,35.77
2019-02-21T18:25:07.255Z,35.57
2019-02-21T18:27:47.995Z,38.17
2019-02-21T18:30:28.506Z,38.97
2019-02-21T18:33:09.306Z,31.90
2019-02-21T18:35:49.909Z,35.20
2019-02-21T18:38:30.782Z,36.53
2019-02-21T18:41:11.663Z,32.10
2019-02-21T18:43:52.082Z,38.97
2019-02-21T18:46:33.326Z,41.20
2019-02-21T18:49:14.201Z,36.17
2019-02-21T18:51:55.225Z,33.63
2019-02-21T18:54:35.957Z,38.93
2019-02-21T18:57:16.638Z,47.03
2019-02-21T18:59:57.357Z,35.13
2019-02-21T19:02:38.342Z,36.73
2019-02-21T19:05:18.946Z,40.13
2019-02-21T19:10:48.289Z,32.50
2019-02-21T19:13:29.006Z,38.97
2019-02-21T19:16:09.690Z,35.30
2019-02-21T19:18:50.493Z,38.87
2019-02-21T19:21:31.179Z,69.03
2019-02-21T19:24:12.251Z,47.67
2019-02-21T19:26:52.955Z,40.43
2019-02-21T19:29:33.646Z,36.73
2019-02-21T19:32:14.110Z,35.03
2019-02-21T19:34:54.557Z,33.67
2019-02-21T19:37:33.722Z,34.10
2019-02-21T19:40:22.458Z,32.53
2019-02-21T19:43:10.889Z,39.07
2019-02-21T19:45:58.937Z,30.53
2019-02-21T19:48:47.127Z,39.73
2019-02-21T19:51:35.242Z,35.10
2019-02-21T19:54:23.541Z,35.40
2019-02-21T19:57:04.630Z,36.80
2019-02-21T19:59:44.997Z,35.43
2019-02-21T20:02:26.354Z,35.00
2019-02-21T20:05:06.557Z,36.43
2019-02-21T20:07:54.877Z,31.43
2019-02-21T20:10:43.009Z,39.97
2019-02-21T20:13:31.128Z,33.53
2019-02-21T20:16:19.198Z,37.80
2019-02-21T20:19:07.287Z,38.60
2019-02-21T20:21:55.415Z,35.60
2019-02-21T20:24:43.714Z,35.87
2019-02-21T20:27:31.949Z,35.83
2019-02-21T20:30:20.192Z,32.73
2019-02-21T20:33:08.300Z,37.53
2019-02-21T20:35:56.433Z,35.33
2019-02-21T20:38:44.736Z,33.80
2019-02-21T20:41:32.873Z,38.60
2019-02-21T20:47:15.061Z,36.57
2019-02-21T20:50:03.208Z,31.63
2019-02-21T20:52:51.255Z,38.60
2019-02-21T20:55:43.790Z,36.17
2019-02-21T20:58:11.675Z,37.67
2019-02-21T21:01:00.065Z,42.47
2019-02-21T21:03:48.211Z,37.73
2019-02-21T21:06:36.286Z,45.17
2019-02-21T21:09:24.346Z,38.20
2019-02-21T21:12:12.714Z,38.30
2019-02-21T21:15:00.851Z,40.13
2019-02-21T21:17:49.209Z,36.70
2019-02-21T21:20:37.514Z,38.47
2019-02-21T21:23:25.879Z,41.43
2019-02-21T21:26:13.943Z,35.00
2019-02-21T21:29:02.067Z,40.17
2019-02-21T21:31:50.201Z,40.53
2019-02-21T21:34:38.255Z,40.73
2019-02-21T21:37:26.390Z,37.97
2019-02-21T21:40:14.477Z,41.13
2019-02-21T21:43:02.534Z,33.63
2019-02-21T21:45:50.670Z,39.27
2019-02-21T21:48:39.018Z,38.47
2019-02-21T21:51:27.353Z,38.97
2019-02-21T21:54:15.721Z,40.67
2019-02-21T21:56:56.494Z,35.83
2019-02-21T21:59:37.206Z,36.67
2019-02-21T22:02:17.902Z,39.97
2019-02-21T22:04:58.557Z,40.57
2019-02-21T22:07:39.390Z,36.67
2019-02-21T22:10:19.763Z,38.07
2019-02-21T22:13:00.319Z,41.90
2019-02-21T22:15:41.342Z,35.93
2019-02-21T22:18:22.274Z,40.90
2019-02-21T22:21:02.961Z,39.83
2019-02-21T22:23:43.602Z,36.83
2019-02-21T22:26:24.291Z,38.07
2019-02-21T22:29:05.092Z,42.27
2019-02-21T22:31:45.789Z,36.20
2019-02-21T22:34:26.475Z,41.93
2019-02-21T22:37:07.154Z,34.33
2019-02-21T22:39:47.937Z,35.37
2019-02-21T22:42:28.386Z,36.30
2019-02-21T22:45:09.174Z,36.73
2019-02-21T22:47:50.207Z,44.00
2019-02-21T22:50:31.302Z,39.90
2019-02-21T22:53:12.102Z,41.20
2019-02-21T22:55:53.362Z,40.30
2019-02-21T22:58:22.526Z,38.17
2019-02-21T23:01:30.165Z,41.53
2019-02-21T23:04:20.077Z,45.23
2019-02-21T23:07:27.356Z,48.27
2019-02-21T23:10:15.547Z,37.83
2019-02-21T23:13:03.942Z,45.10
2019-02-21T23:15:32.837Z,51.87
2019-02-21T23:18:21.132Z,66.33
2019-02-21T23:21:09.433Z,46.47
2019-02-21T23:23:57.572Z,45.43
2019-02-21T23:26:45.734Z,46.13
2019-02-21T23:29:34.013Z,44.53
2019-02-21T23:32:22.154Z,43.13
2019-02-21T23:38:23.144Z,43.13
2019-02-21T23:40:51.994Z,48.07
2019-02-21T23:43:40.234Z,43.23
2019-02-21T23:46:28.533Z,46.07
2019-02-21T23:49:16.602Z,47.53
2019-02-21T23:55:00.486Z,40.07
2019-02-21T23:57:40.934Z,49.03
